Time;durP1;ratioP1;P1;durP2;ratioP2;P2;SDS_P1;SDS_P2;PMS_P1;PMS_P2;Temp;Humidity;BMP_temperature;BMP_pressure;BME280_temperature;BME280_humidity;BME280_pressure;Samples;Min_cycle;Max_cycle;Signal;HPM_P1;HPM_P2
2022/02/27 00:00:21;;;;;;;23.70;6.18;;;;;;;2.88;68.50;102811.03;5065211;28;20054;-65
2022/02/27 00:02:49;;;;;;;18.83;6.43;;;;;;;2.92;67.81;102817.03;5081867;28;20043;-66
2022/02/27 00:05:16;;;;;;;25.50;6.32;;;;;;;2.91;67.81;102812.69;5114259;28;20040;-64
2022/02/27 00:07:43;;;;;;;22.52;6.05;;;;;;;2.91;68.16;102810.94;5116157;28;20491;-65
2022/02/27 00:10:11;;;;;;;28.10;6.57;;;;;;;2.87;67.87;102804.06;5114507;28;20430;-64
2022/02/27 00:12:38;;;;;;;24.67;6.00;;;;;;;2.85;67.51;102804.09;5094006;28;20451;-64
2022/02/27 00:15:05;;;;;;;19.70;5.50;;;;;;;2.90;68.20;102797.88;5094450;28;20496;-65
2022/02/27 00:17:36;;;;;;;25.60;6.03;;;;;;;2.87;67.79;102804.06;5077464;28;20048;-65
2022/02/27 00:20:04;;;;;;;21.75;5.60;;;;;;;2.82;67.69;102805.97;5095534;28;20044;-64
2022/02/27 00:22:32;;;;;;;24.60;5.45;;;;;;;2.80;67.24;102803.44;5095397;28;20524;-65
2022/02/27 00:25:00;;;;;;;23.45;5.93;;;;;;;2.74;67.60;102801.00;5095281;28;20040;-65
2022/02/27 00:27:27;;;;;;;19.02;5.00;;;;;;;2.85;67.39;102809.34;5094887;28;20446;-64
2022/02/27 00:29:54;;;;;;;17.90;4.97;;;;;;;2.73;68.16;102799.31;5093956;28;20036;-65
2022/02/27 00:32:21;;;;;;;21.10;5.95;;;;;;;2.71;68.68;102809.00;5094667;28;20103;-64
2022/02/27 00:34:47;;;;;;;20.63;6.25;;;;;;;2.79;67.94;102804.34;5093846;28;20044;-65
2022/02/27 00:37:14;;;;;;;21.77;5.55;;;;;;;2.78;68.18;102797.38;5095081;28;20052;-64
2022/02/27 00:39:41;;;;;;;13.82;4.65;;;;;;;2.78;67.92;102791.28;5099867;28;20043;-65
2022/02/27 00:42:08;;;;;;;13.10;4.63;;;;;;;2.82;68.67;102795.50;5115218;27;20077;-65
2022/02/27 00:44:34;;;;;;;19.90;5.32;;;;;;;2.67;68.52;102789.91;5115493;28;20513;-65
2022/02/27 00:47:01;;;;;;;18.52;4.57;;;;;;;2.73;68.48;102786.22;5113990;28;20048;-65
2022/02/27 00:49:30;;;;;;;21.13;5.53;;;;;;;2.71;68.64;102782.78;5097420;28;20040;-65
2022/02/27 00:51:56;;;;;;;17.30;4.82;;;;;;;2.66;67.76;102782.09;5080186;28;20089;-65
2022/02/27 00:54:23;;;;;;;15.95;4.10;;;;;;;2.59;68.56;102777.97;5113752;28;20031;-65
2022/02/27 00:56:50;;;;;;;18.00;4.30;;;;;;;2.60;68.01;102782.28;5097032;28;20048;-65
2022/02/27 00:59:17;;;;;;;22.63;5.10;;;;;;;2.56;68.27;102780.69;5113752;28;20500;-65
2022/02/27 01:01:43;;;;;;;20.25;4.70;;;;;;;2.64;67.86;102776.03;5114810;28;20092;-65
2022/02/27 01:04:10;;;;;;;21.85;4.85;;;;;;;2.71;67.80;102777.56;5113806;28;20039;-65
2022/02/27 01:06:37;;;;;;;19.10;4.28;;;;;;;2.75;67.11;102784.38;5113536;28;20039;-65
2022/02/27 01:09:04;;;;;;;20.85;5.72;;;;;;;2.68;68.03;102777.66;5114896;28;20043;-65
2022/02/27 01:11:33;;;;;;;19.83;4.82;;;;;;;2.67;68.18;102778.53;5115275;27;20051;-64
2022/02/27 01:14:01;;;;;;;17.98;4.68;;;;;;;2.71;68.34;102769.69;5115618;28;20040;-65
2022/02/27 01:16:30;;;;;;;21.02;4.50;;;;;;;2.72;68.85;102768.75;5112831;28;20048;-64
2022/02/27 01:18:58;;;;;;;19.30;4.30;;;;;;;2.54;68.41;102770.25;5113619;28;20114;-65
2022/02/27 01:21:26;;;;;;;20.08;4.45;;;;;;;2.62;68.78;102783.97;5096510;28;20051;-65
2022/02/27 01:23:52;;;;;;;23.15;4.32;;;;;;;2.55;68.24;102771.09;5096843;28;20066;-65
2022/02/27 01:26:19;;;;;;;16.15;4.22;;;;;;;2.62;68.49;102776.09;5113197;28;20047;-65
2022/02/27 01:28:46;;;;;;;17.83;4.53;;;;;;;2.68;68.97;102788.13;5079571;28;20043;-64
2022/02/27 01:31:12;;;;;;;10.75;3.80;;;;;;;2.65;68.76;102791.69;5113987;28;20055;-65
2022/02/27 01:33:39;;;;;;;21.42;4.00;;;;;;;2.59;68.82;102785.81;5096164;28;20032;-65
2022/02/27 01:36:07;;;;;;;20.40;4.63;;;;;;;2.62;69.25;102785.69;5113002;28;20044;-64
2022/02/27 01:38:35;;;;;;;18.27;4.35;;;;;;;2.63;68.40;102788.28;5080112;28;20067;-65
2022/02/27 01:41:02;;;;;;;17.10;3.90;;;;;;;2.60;68.97;102783.16;5115246;27;20069;-65
2022/02/27 01:43:29;;;;;;;16.20;4.38;;;;;;;2.65;68.87;102786.44;5116633;27;20043;-65
2022/02/27 01:45:56;;;;;;;23.10;4.65;;;;;;;2.62;68.68;102781.34;5132809;27;20047;-65
2022/02/27 01:48:24;;;;;;;15.02;4.18;;;;;;;2.60;68.91;102777.03;5133169;27;20066;-65
2022/02/27 01:50:51;;;;;;;19.98;4.50;;;;;;;2.50;68.48;102773.88;5125060;27;20043;-65
2022/02/27 01:53:18;;;;;;;21.98;4.72;;;;;;;2.53;69.11;102779.03;5112821;28;20070;-65
2022/02/27 01:55:48;;;;;;;17.70;4.50;;;;;;;2.56;69.49;102776.28;5113919;27;20047;-65
2022/02/27 01:58:15;;;;;;;17.50;4.35;;;;;;;2.39;69.36;102776.00;5095874;28;20134;-65
2022/02/27 02:00:41;;;;;;;21.58;4.75;;;;;;;2.48;69.27;102770.47;5114083;28;20065;-64
2022/02/27 02:03:08;;;;;;;13.45;4.03;;;;;;;2.42;70.02;102771.53;5095753;28;20043;-65
2022/02/27 02:05:35;;;;;;;20.02;4.68;;;;;;;2.47;69.31;102771.34;5113895;28;20487;-65
2022/02/27 02:08:03;;;;;;;21.50;4.75;;;;;;;2.47;70.05;102785.34;5113689;28;20067;-65
2022/02/27 02:10:31;;;;;;;16.00;4.18;;;;;;;2.43;69.49;102773.22;5092394;28;20135;-65
2022/02/27 02:13:01;;;;;;;21.17;4.50;;;;;;;2.48;69.56;102773.94;5093226;28;20044;-65
2022/02/27 02:15:28;;;;;;;20.00;4.50;;;;;;;2.40;69.32;102770.72;5093234;28;20496;-64
2022/02/27 02:17:55;;;;;;;19.35;4.78;;;;;;;2.38;70.00;102779.53;5075446;28;20048;-65
2022/02/27 02:20:22;;;;;;;19.02;4.35;;;;;;;2.45;69.35;102781.03;5093476;28;20126;-65
2022/02/27 02:22:54;;;;;;;17.15;4.28;;;;;;;2.43;69.70;102769.75;5092149;28;20047;-65
2022/02/27 02:25:21;;;;;;;22.88;4.72;;;;;;;2.45;70.04;102770.56;5092077;28;20039;-65
2022/02/27 02:27:49;;;;;;;23.65;4.47;;;;;;;2.39;69.57;102765.53;5092919;28;20120;-65
2022/02/27 02:30:16;;;;;;;18.23;4.35;;;;;;;2.43;70.05;102775.00;5093230;28;20446;-65
2022/02/27 02:32:47;;;;;;;20.60;4.40;;;;;;;2.39;70.25;102762.91;5068233;28;20485;-65
2022/02/27 02:35:15;;;;;;;17.05;4.45;;;;;;;2.35;69.96;102766.53;5035182;28;20041;-64
2022/02/27 02:37:42;;;;;;;17.58;4.15;;;;;;;2.37;70.11;102762.13;5051542;28;20047;-65
2022/02/27 02:40:09;;;;;;;18.88;4.13;;;;;;;2.42;70.33;102768.03;5051394;28;20440;-65
2022/02/27 02:42:38;;;;;;;21.67;4.95;;;;;;;2.42;70.45;102762.78;5052635;28;20049;-65
2022/02/27 02:45:08;;;;;;;20.35;4.20;;;;;;;2.35;69.57;102766.53;5067816;28;20472;-65
2022/02/27 02:47:39;;;;;;;19.75;4.82;;;;;;;2.39;69.99;102761.16;5068014;28;20045;-65
2022/02/27 02:50:07;;;;;;;18.88;4.07;;;;;;;2.35;69.80;102767.41;5046145;28;20052;-65
2022/02/27 02:52:35;;;;;;;13.80;4.30;;;;;;;2.39;69.46;102755.91;5067848;28;20133;-65
2022/02/27 02:55:07;;;;;;;20.50;4.05;;;;;;;2.41;69.49;102748.84;5067914;28;20041;-65
2022/02/27 02:57:34;;;;;;;21.73;4.13;;;;;;;2.45;69.40;102750.44;5034937;28;20095;-65
2022/02/27 03:00:01;;;;;;;16.45;3.83;;;;;;;2.47;69.60;102742.53;5052518;28;20049;-65
2022/02/27 03:02:29;;;;;;;18.80;3.95;;;;;;;2.44;69.66;102746.13;5051582;28;20049;-65
2022/02/27 03:04:56;;;;;;;16.20;3.45;;;;;;;2.44;69.15;102737.44;5051335;28;20037;-64
2022/02/27 03:07:23;;;;;;;22.08;3.75;;;;;;;2.39;69.49;102736.72;5051271;28;20045;-65
2022/02/27 03:09:49;;;;;;;17.13;4.38;;;;;;;2.40;69.68;102739.28;5070649;28;20055;-65
2022/02/27 03:12:16;;;;;;;16.13;3.97;;;;;;;2.39;69.01;102734.09;5071151;28;20489;-65
2022/02/27 03:14:43;;;;;;;20.85;4.40;;;;;;;2.36;69.52;102736.81;5071213;28;20558;-65
2022/02/27 03:17:09;;;;;;;17.88;3.75;;;;;;;2.37;69.76;102728.06;5071082;28;20447;-65
2022/02/27 03:19:36;;;;;;;19.80;4.63;;;;;;;2.38;69.15;102727.97;5072608;28;20072;-65
2022/02/27 03:22:05;;;;;;;15.07;4.13;;;;;;;2.42;69.84;102726.13;5072756;28;20404;-64
2022/02/27 03:24:31;;;;;;;16.08;4.10;;;;;;;2.36;69.16;102737.66;5073277;28;20799;-65
2022/02/27 03:27:00;;;;;;;16.70;4.32;;;;;;;2.53;68.49;102725.75;5072315;28;20051;-64
2022/02/27 03:29:26;;;;;;;12.52;3.70;;;;;;;2.45;69.34;102724.25;5072437;28;20113;-65
2022/02/27 03:31:54;;;;;;;16.98;3.78;;;;;;;2.43;69.45;102726.06;5098605;28;20059;-65
2022/02/27 03:34:21;;;;;;;13.10;3.83;;;;;;;2.33;69.33;102722.06;5095101;28;20097;-65
2022/02/27 03:36:48;;;;;;;19.50;4.75;;;;;;;2.35;69.27;102730.72;5112645;28;20514;-65
2022/02/27 03:39:15;;;;;;;20.52;4.00;;;;;;;2.29;70.46;102726.56;5114466;28;20036;-64
2022/02/27 03:41:42;;;;;;;19.20;4.03;;;;;;;2.34;69.30;102731.63;5117595;27;20479;-65
2022/02/27 03:44:08;;;;;;;17.95;4.03;;;;;;;2.41;69.22;102734.91;5118587;27;20043;-65
2022/02/27 03:46:35;;;;;;;21.67;4.10;;;;;;;2.34;69.80;102730.78;5136379;27;20078;-65
2022/02/27 03:49:04;;;;;;;20.17;4.10;;;;;;;2.29;70.00;102729.19;5136619;27;20035;-65
2022/02/27 03:51:33;;;;;;;20.60;4.35;;;;;;;2.24;69.26;102725.00;5135805;27;20051;-65
2022/02/27 03:54:03;;;;;;;16.70;4.10;;;;;;;2.13;70.45;102716.63;5118698;27;20471;-65
2022/02/27 03:56:29;;;;;;;17.80;4.13;;;;;;;2.19;69.82;102719.91;5136726;27;20099;-65
2022/02/27 03:58:56;;;;;;;16.60;3.92;;;;;;;2.15;70.00;102728.78;5135343;27;20071;-65
2022/02/27 04:01:23;;;;;;;20.02;4.20;;;;;;;2.13;69.91;102721.88;5135710;27;20078;-64
2022/02/27 04:03:50;;;;;;;14.63;3.95;;;;;;;2.24;69.73;102725.84;5136490;27;20050;-65
2022/02/27 04:06:18;;;;;;;22.30;4.13;;;;;;;2.19;70.18;102719.91;5135084;27;20054;-65
2022/02/27 04:08:45;;;;;;;16.75;3.80;;;;;;;2.14;70.22;102723.59;5114838;28;20093;-64
2022/02/27 04:11:12;;;;;;;23.73;4.10;;;;;;;2.14;69.57;102729.69;5114816;28;20426;-64
2022/02/27 04:13:38;;;;;;;21.02;3.80;;;;;;;2.12;69.84;102731.50;5114588;28;20036;-64
2022/02/27 04:16:05;;;;;;;19.95;4.05;;;;;;;2.07;70.00;102729.03;5114562;28;20381;-65
2022/02/27 04:18:32;;;;;;;14.52;3.67;;;;;;;2.06;70.19;102731.72;5115728;28;20491;-65
2022/02/27 04:20:59;;;;;;;14.85;3.45;;;;;;;1.92;69.73;102732.13;5115042;28;20047;-64
2022/02/27 04:23:25;;;;;;;14.00;3.35;;;;;;;1.92;71.05;102730.38;5114498;28;20043;-65
2022/02/27 04:25:52;;;;;;;19.40;3.80;;;;;;;2.03;70.29;102721.31;5115730;28;20392;-64
2022/02/27 04:28:19;;;;;;;18.02;3.63;;;;;;;1.98;70.75;102728.47;5097588;28;20092;-65
2022/02/27 04:30:45;;;;;;;14.57;3.58;;;;;;;1.93;70.04;102726.00;5114078;28;20043;-65
2022/02/27 04:33:12;;;;;;;11.75;3.20;;;;;;;1.97;69.41;102726.78;5115641;28;20043;-64
2022/02/27 04:35:39;;;;;;;16.60;3.60;;;;;;;2.04;69.61;102733.53;5097322;28;20404;-64
2022/02/27 04:38:06;;;;;;;19.27;3.63;;;;;;;2.04;69.64;102736.13;5097542;28;20376;-64
2022/02/27 04:40:33;;;;;;;15.52;3.50;;;;;;;2.07;69.30;102733.41;5115357;28;20126;-64
2022/02/27 04:43:01;;;;;;;16.58;4.15;;;;;;;2.05;69.33;102733.44;5115390;28;20043;-64
2022/02/27 04:45:29;;;;;;;19.25;3.95;;;;;;;2.22;68.99;102739.88;5114190;28;20126;-64
2022/02/27 04:47:56;;;;;;;19.38;3.70;;;;;;;2.09;68.87;102739.44;5080518;28;20047;-65
2022/02/27 04:50:23;;;;;;;21.73;3.60;;;;;;;2.05;68.79;102736.06;5113945;28;20514;-64
2022/02/27 04:52:49;;;;;;;17.13;3.42;;;;;;;2.13;69.74;102732.34;5114267;28;20488;-64
2022/02/27 04:55:17;;;;;;;16.38;3.83;;;;;;;2.08;69.13;102735.97;5114920;28;20089;-64
2022/02/27 04:57:44;;;;;;;18.08;4.05;;;;;;;2.19;69.27;102738.25;5115037;28;20544;-64
2022/02/27 05:00:12;;;;;;;17.40;3.42;;;;;;;2.15;69.06;102738.38;5114143;28;20082;-64
2022/02/27 05:02:38;;;;;;;11.00;3.50;;;;;;;2.08;69.14;102737.75;5115405;28;20055;-64
2022/02/27 05:05:06;;;;;;;13.63;3.70;;;;;;;2.17;68.32;102734.81;5113615;28;20419;-64
2022/02/27 05:07:32;;;;;;;12.52;3.83;;;;;;;2.12;69.45;102734.09;5114964;28;20518;-64
2022/02/27 05:10:00;;;;;;;17.67;3.50;;;;;;;2.10;68.24;102733.31;5115109;28;20052;-64
2022/02/27 05:12:27;;;;;;;13.48;3.15;;;;;;;2.04;69.39;102730.91;5114877;28;20085;-64
2022/02/27 05:14:54;;;;;;;17.70;4.03;;;;;;;2.12;69.01;102723.63;5096503;28;20449;-65
2022/02/27 05:17:32;;;;;;;18.73;3.55;;;;;;;2.05;69.93;102724.75;5114633;28;20115;-64
2022/02/27 05:19:59;;;;;;;14.82;3.83;;;;;;;1.97;68.61;102725.00;5080191;28;20384;-65
2022/02/27 05:22:26;;;;;;;14.10;3.35;;;;;;;1.95;69.48;102725.94;5113436;28;20047;-65
2022/02/27 05:24:52;;;;;;;11.63;3.47;;;;;;;1.91;68.83;102715.59;5113460;28;20067;-65
2022/02/27 05:27:19;;;;;;;13.80;3.65;;;;;;;1.90;69.37;102721.72;5114472;28;20101;-64
2022/02/27 05:29:46;;;;;;;15.23;3.53;;;;;;;1.96;69.02;102719.81;5080047;28;20097;-64
2022/02/27 05:32:13;;;;;;;20.70;3.92;;;;;;;2.02;69.11;102725.72;5114827;28;20100;-64
2022/02/27 05:34:40;;;;;;;11.32;3.70;;;;;;;1.92;68.78;102719.91;5114560;28;20039;-65
2022/02/27 05:37:06;;;;;;;17.80;3.97;;;;;;;1.88;69.45;102717.44;5114291;28;20036;-65
2022/02/27 05:39:33;;;;;;;11.27;3.72;;;;;;;1.97;69.51;102721.53;5114237;28;20043;-64
2022/02/27 05:42:00;;;;;;;20.85;4.25;;;;;;;1.87;69.37;102718.34;5111813;27;20047;-64
2022/02/27 05:44:26;;;;;;;17.27;3.97;;;;;;;1.82;69.67;102725.47;5112858;27;20070;-65
2022/02/27 05:46:53;;;;;;;17.98;3.65;;;;;;;1.82;69.19;102721.13;5133130;27;20035;-65
2022/02/27 05:49:20;;;;;;;17.77;3.83;;;;;;;1.90;68.71;102729.56;5132968;27;20035;-64
2022/02/27 05:51:47;;;;;;;13.13;3.60;;;;;;;1.89;68.92;102727.00;5134507;27;20043;-64
2022/02/27 05:54:14;;;;;;;12.30;3.83;;;;;;;1.80;68.77;102722.06;5133492;27;20046;-64
2022/02/27 05:56:41;;;;;;;17.10;3.97;;;;;;;1.99;69.09;102728.41;5134696;27;20062;-64
2022/02/27 05:59:08;;;;;;;21.58;4.05;;;;;;;1.86;68.97;102729.72;5128792;27;20040;-63
2022/02/27 06:01:35;;;;;;;16.60;3.70;;;;;;;1.88;69.32;102727.91;5113529;28;20044;-64
2022/02/27 06:04:01;;;;;;;16.00;3.60;;;;;;;1.86;68.66;102737.59;5111024;28;20122;-64
2022/02/27 06:06:28;;;;;;;13.10;3.63;;;;;;;1.89;69.24;102724.38;5112680;28;20040;-63
2022/02/27 06:08:55;;;;;;;13.15;3.47;;;;;;;1.82;69.54;102725.47;5109014;28;20071;-64
2022/02/27 06:11:21;;;;;;;11.07;3.67;;;;;;;1.80;69.78;102719.44;5110660;28;20051;-63
2022/02/27 06:13:48;;;;;;;17.30;4.00;;;;;;;1.80;69.50;102722.94;5095867;28;20044;-63
2022/02/27 06:16:15;;;;;;;13.45;4.00;;;;;;;1.77;69.02;102725.63;5112385;28;20035;-64
2022/02/27 06:18:41;;;;;;;15.73;3.97;;;;;;;1.80;68.80;102719.44;5112384;28;20043;-64
2022/02/27 06:21:08;;;;;;;16.00;4.05;;;;;;;1.77;68.99;102722.19;5112862;28;20407;-64
2022/02/27 06:23:35;;;;;;;16.33;4.20;;;;;;;1.75;69.12;102724.84;5112557;28;20052;-63
2022/02/27 06:26:01;;;;;;;19.70;3.90;;;;;;;1.76;68.99;102723.06;5112327;28;20501;-64
2022/02/27 06:28:28;;;;;;;16.88;3.58;;;;;;;1.79;69.47;102720.38;5095362;28;20047;-63
2022/02/27 06:30:55;;;;;;;13.77;4.10;;;;;;;1.77;69.37;102730.88;5111980;28;20107;-64
2022/02/27 06:33:22;;;;;;;23.42;5.28;;;;;;;1.65;68.81;102726.84;5095559;28;20052;-64
2022/02/27 06:35:48;;;;;;;12.60;3.88;;;;;;;1.64;69.36;102727.78;5112176;28;20043;-64
2022/02/27 06:38:15;;;;;;;15.02;4.03;;;;;;;1.72;69.47;102725.78;5095799;28;20048;-63
2022/02/27 06:40:42;;;;;;;22.58;4.50;;;;;;;1.72;68.57;102736.22;5091914;28;20507;-64
2022/02/27 06:43:09;;;;;;;18.10;4.32;;;;;;;1.66;68.43;102731.22;5092948;28;20488;-64
2022/02/27 06:45:36;;;;;;;18.73;4.40;;;;;;;1.83;69.10;102735.91;5108373;28;20119;-64
2022/02/27 06:48:02;;;;;;;15.52;5.00;;;;;;;1.86;67.70;102733.19;5091826;28;20047;-64
2022/02/27 06:50:29;;;;;;;19.98;4.80;;;;;;;1.82;68.87;102742.06;5094969;28;20771;-63
2022/02/27 06:52:56;;;;;;;11.95;4.45;;;;;;;1.85;67.28;102741.94;5078559;28;20044;-64
2022/02/27 06:55:23;;;;;;;13.48;4.25;;;;;;;1.82;67.09;102749.03;5094979;28;20091;-64
2022/02/27 06:57:51;;;;;;;15.52;4.90;;;;;;;1.83;67.99;102743.75;5113151;28;20064;-64
2022/02/27 07:00:19;;;;;;;14.45;4.60;;;;;;;1.85;66.99;102743.72;5113165;28;20092;-64
2022/02/27 07:02:46;;;;;;;16.00;5.43;;;;;;;1.91;67.36;102743.50;5111992;28;20046;-64
2022/02/27 07:05:14;;;;;;;15.10;4.60;;;;;;;1.95;67.25;102758.22;5112000;28;20040;-64
2022/02/27 07:07:41;;;;;;;13.23;4.63;;;;;;;1.99;66.96;102749.38;5113208;28;20039;-64
2022/02/27 07:10:09;;;;;;;13.27;4.63;;;;;;;1.99;66.42;102754.59;5111852;28;20039;-64
2022/02/27 07:12:37;;;;;;;18.25;5.00;;;;;;;2.04;66.92;102759.69;5112024;28;20560;-64
2022/02/27 07:15:05;;;;;;;13.75;4.78;;;;;;;2.13;66.49;102753.28;5115965;28;20031;-64
2022/02/27 07:17:32;;;;;;;18.35;4.40;;;;;;;2.15;65.83;102764.56;5117155;28;20575;-64
2022/02/27 07:19:59;;;;;;;14.73;4.35;;;;;;;2.27;66.37;102761.53;5116975;28;20035;-64
2022/02/27 07:22:26;;;;;;;14.80;4.75;;;;;;;2.36;65.65;102757.78;5115668;28;20044;-65
2022/02/27 07:24:54;;;;;;;15.10;4.93;;;;;;;2.33;65.15;102763.09;5115955;28;20054;-64
2022/02/27 07:27:21;;;;;;;14.60;4.82;;;;;;;2.41;64.28;102761.09;5116826;28;20096;-64
2022/02/27 07:29:48;;;;;;;19.90;4.60;;;;;;;2.44;64.67;102761.84;5098495;28;20058;-64
2022/02/27 07:32:15;;;;;;;18.15;5.15;;;;;;;2.51;64.03;102757.28;5116598;28;20067;-65
2022/02/27 07:34:42;;;;;;;17.60;5.35;;;;;;;2.59;63.26;102755.22;5116665;28;20039;-65
2022/02/27 07:37:09;;;;;;;18.13;5.00;;;;;;;2.53;62.76;102760.69;5115300;28;20040;-65
2022/02/27 07:39:36;;;;;;;21.05;5.25;;;;;;;2.68;64.19;102761.91;5115843;28;20050;-64
2022/02/27 07:42:03;;;;;;;13.00;4.72;;;;;;;2.76;64.09;102759.03;5118750;28;20048;-65
2022/02/27 07:44:30;;;;;;;18.10;4.90;;;;;;;2.85;62.18;102762.16;5099071;28;20046;-65
2022/02/27 07:46:57;;;;;;;17.15;5.30;;;;;;;2.84;61.76;102754.38;5116125;28;20043;-65
2022/02/27 07:49:24;;;;;;;11.98;4.35;;;;;;;3.00;61.85;102758.16;5114617;28;20051;-64
2022/02/27 07:51:50;;;;;;;16.38;4.97;;;;;;;3.04;62.38;102751.88;5116245;28;20083;-65
2022/02/27 07:54:17;;;;;;;20.08;4.90;;;;;;;3.12;61.38;102762.09;5115888;28;20042;-65
2022/02/27 07:56:45;;;;;;;13.23;4.32;;;;;;;3.24;62.19;102761.66;5116357;27;20065;-64
2022/02/27 07:59:13;;;;;;;21.63;5.90;;;;;;;3.30;61.16;102762.34;5115760;28;20101;-65
2022/02/27 08:01:42;;;;;;;19.95;5.10;;;;;;;3.45;61.26;102767.00;5116261;28;20044;-64
2022/02/27 08:04:09;;;;;;;15.40;4.60;;;;;;;3.58;60.78;102765.59;5114896;28;20045;-65
2022/02/27 08:06:36;;;;;;;19.85;5.18;;;;;;;3.67;59.77;102763.53;5115003;28;20081;-65
2022/02/27 08:09:04;;;;;;;16.05;4.70;;;;;;;3.80;60.03;102764.75;5116142;28;20039;-65
2022/02/27 08:11:31;;;;;;;19.55;4.78;;;;;;;3.88;59.49;102767.13;5114723;28;20051;-65
2022/02/27 08:13:59;;;;;;;15.40;4.88;;;;;;;4.04;59.53;102763.81;5114727;27;20036;-65
2022/02/27 08:16:26;;;;;;;16.48;4.55;;;;;;;4.07;58.84;102761.97;5115605;27;20043;-65
2022/02/27 08:18:52;;;;;;;19.35;5.25;;;;;;;4.13;59.17;102766.94;5115944;28;20499;-65
2022/02/27 08:21:19;;;;;;;15.43;4.95;;;;;;;4.20;58.46;102760.53;5081235;28;20050;-65
2022/02/27 08:23:46;;;;;;;23.23;5.05;;;;;;;4.40;57.31;102768.47;5115932;28;20380;-65
2022/02/27 08:26:13;;;;;;;14.38;4.75;;;;;;;4.54;56.75;102773.13;5114060;28;20047;-64
2022/02/27 08:28:40;;;;;;;16.92;4.85;;;;;;;4.51;57.52;102777.66;5114317;28;20047;-65
2022/02/27 08:31:07;;;;;;;19.73;4.93;;;;;;;4.65;57.23;102777.06;5115089;28;20044;-65
2022/02/27 08:33:35;;;;;;;18.30;4.80;;;;;;;4.76;56.46;102780.09;5114601;28;20062;-64
2022/02/27 08:36:02;;;;;;;15.20;4.82;;;;;;;4.73;57.39;102777.59;5113994;28;20089;-65
2022/02/27 08:38:30;;;;;;;16.67;5.57;;;;;;;4.72;56.73;102775.91;5115534;28;20081;-65
2022/02/27 08:40:56;;;;;;;18.08;5.45;;;;;;;4.77;55.48;102780.03;5114133;28;20039;-64
2022/02/27 08:43:24;;;;;;;13.57;5.13;;;;;;;4.92;56.69;102778.50;5097497;28;20047;-64
2022/02/27 08:45:50;;;;;;;14.05;4.65;;;;;;;5.10;56.17;102776.00;5114193;28;20036;-65
2022/02/27 08:48:17;;;;;;;16.17;5.40;;;;;;;5.15;56.67;102769.59;5115493;28;20143;-65
2022/02/27 08:50:44;;;;;;;9.27;4.25;;;;;;;5.17;56.18;102774.78;5115142;28;20047;-64
2022/02/27 08:53:11;;;;;;;14.35;4.88;;;;;;;5.28;55.00;102763.78;5097157;28;20050;-65
2022/02/27 08:55:38;;;;;;;20.63;5.40;;;;;;;5.23;55.55;102769.25;5096841;28;20035;-65
2022/02/27 08:58:04;;;;;;;16.27;4.40;;;;;;;5.10;54.90;102768.94;5115377;28;20044;-64
2022/02/27 09:00:32;;;;;;;15.13;4.63;;;;;;;5.21;56.78;102749.19;5114903;28;20130;-64
2022/02/27 09:02:58;;;;;;;21.70;4.85;;;;;;;5.06;55.65;102761.25;5113953;28;20063;-64
2022/02/27 09:05:25;;;;;;;19.38;5.00;;;;;;;5.11;56.19;102761.91;5114796;28;20059;-64
2022/02/27 09:07:52;;;;;;;19.20;4.55;;;;;;;5.13;55.51;102757.41;5114962;28;20065;-65
2022/02/27 09:10:19;;;;;;;15.02;4.95;;;;;;;5.17;56.56;102757.22;5093453;28;20048;-65
2022/02/27 09:12:47;;;;;;;15.05;4.60;;;;;;;5.26;56.12;102758.59;5094582;28;20459;-65
2022/02/27 09:15:14;;;;;;;14.02;4.78;;;;;;;5.23;55.63;102753.44;5094094;28;20067;-65
2022/02/27 09:17:42;;;;;;;20.95;4.72;;;;;;;5.29;55.19;102757.56;5094566;28;20401;-65
2022/02/27 09:20:09;;;;;;;15.07;5.00;;;;;;;5.25;55.18;102751.59;5113445;28;20501;-65
2022/02/27 09:22:36;;;;;;;15.30;4.60;;;;;;;5.41;54.33;102746.50;5113458;28;20407;-65
2022/02/27 09:25:06;;;;;;;18.75;4.57;;;;;;;5.39;54.75;102757.09;5080030;28;20043;-65
2022/02/27 09:27:38;;;;;;;19.95;4.30;;;;;;;5.49;54.13;102754.03;5114738;28;20110;-64
2022/02/27 09:30:05;;;;;;;18.20;4.68;;;;;;;5.52;53.60;102746.84;5113038;28;20445;-64
2022/02/27 09:32:31;;;;;;;19.27;4.97;;;;;;;5.62;54.22;102759.56;5112800;28;20044;-65
2022/02/27 09:34:58;;;;;;;14.57;4.60;;;;;;;5.79;52.82;102759.63;5114295;28;20047;-65
2022/02/27 09:37:25;;;;;;;15.07;3.97;;;;;;;5.79;52.33;102756.16;5113611;28;20040;-64
2022/02/27 09:39:53;;;;;;;13.15;4.72;;;;;;;5.91;52.81;102755.53;5096208;28;20066;-65
2022/02/27 09:42:20;;;;;;;14.35;4.35;;;;;;;6.04;51.79;102764.59;5114204;28;20134;-64
2022/02/27 09:44:47;;;;;;;18.35;4.25;;;;;;;6.09;50.56;102759.97;5119281;27;20040;-65
2022/02/27 09:47:15;;;;;;;16.75;4.47;;;;;;;6.04;52.50;102766.34;5116469;27;20084;-64
2022/02/27 09:49:45;;;;;;;14.15;4.30;;;;;;;6.13;51.30;102758.88;5116166;27;20039;-66
2022/02/27 09:52:15;;;;;;;14.05;3.80;;;;;;;6.10;50.68;102753.75;5136453;27;20126;-64
2022/02/27 09:54:42;;;;;;;15.20;3.50;;;;;;;6.17;51.21;102759.56;5134075;27;20107;-65
2022/02/27 09:57:18;;;;;;;17.27;4.18;;;;;;;6.31;50.86;102753.59;5116295;27;20039;-65
2022/02/27 09:59:45;;;;;;;13.55;4.05;;;;;;;6.44;50.51;102752.06;5117350;27;20051;-64
2022/02/27 10:02:14;;;;;;;16.00;4.47;;;;;;;6.47;50.65;102749.25;5112858;28;20042;-65
2022/02/27 10:04:42;;;;;;;11.82;3.85;;;;;;;6.50;50.37;102757.03;5112564;28;20407;-65
2022/02/27 10:07:12;;;;;;;13.52;4.45;;;;;;;6.62;48.36;102744.13;5114095;28;20392;-65
2022/02/27 10:09:41;;;;;;;13.00;3.90;;;;;;;6.68;50.90;102744.69;5112879;28;20044;-65
2022/02/27 10:12:24;;;;;;;12.65;4.20;;;;;;;6.87;48.80;102748.97;5095776;28;20048;-65
2022/02/27 10:15:04;;;;;;;11.45;3.97;;;;;;;6.93;46.43;102740.75;5112230;28;20051;-65
2022/02/27 10:17:34;;;;;;;12.52;4.25;;;;;;;6.98;47.64;102751.06;5112347;28;20039;-65
2022/02/27 10:20:05;;;;;;;12.73;3.67;;;;;;;7.13;47.07;102749.38;5112552;28;20127;-64
2022/02/27 10:22:35;;;;;;;12.35;4.05;;;;;;;7.25;48.19;102741.66;5112542;28;20047;-65
2022/02/27 10:25:11;;;;;;;11.88;3.60;;;;;;;7.46;44.58;102760.75;5112392;28;20097;-65
2022/02/27 10:27:39;;;;;;;10.93;3.50;;;;;;;7.49;44.87;102754.44;5103922;28;20050;-65
2022/02/27 10:30:19;;;;;;;16.55;4.13;;;;;;;7.58;44.66;102751.28;5112297;28;20088;-65
2022/02/27 10:33:05;;;;;;;9.55;3.47;;;;;;;7.98;43.29;102754.31;5112583;28;20127;-65
2022/02/27 10:35:40;;;;;;;12.70;3.28;;;;;;;8.36;42.66;102753.88;5112297;28;20047;-65
2022/02/27 10:38:11;;;;;;;9.30;3.47;;;;;;;8.48;42.45;102746.19;5113898;28;20075;-65
2022/02/27 10:40:43;;;;;;;11.82;3.70;;;;;;;8.47;42.37;102749.81;5113240;28;20065;-65
2022/02/27 10:43:11;;;;;;;12.45;3.63;;;;;;;8.91;43.06;102747.09;5095959;28;20049;-65
2022/02/27 10:45:40;;;;;;;9.60;3.80;;;;;;;9.73;39.98;102749.91;5113338;28;20044;-65
2022/02/27 10:48:14;;;;;;;10.35;3.20;;;;;;;11.42;35.87;102746.34;5096896;28;20556;-65
2022/02/27 10:50:43;;;;;;;11.07;3.20;;;;;;;12.61;33.62;102754.41;5115952;28;20488;-65
2022/02/27 10:53:13;;;;;;;11.93;3.50;;;;;;;14.38;31.12;102756.13;5117754;28;20092;-65
2022/02/27 10:55:40;;;;;;;16.38;4.43;;;;;;;14.63;30.43;102747.91;5116458;28;20039;-64
2022/02/27 10:58:08;;;;;;;12.43;3.80;;;;;;;15.88;28.77;102751.13;5117072;28;20438;-64
2022/02/27 11:00:37;;;;;;;14.45;4.15;;;;;;;16.80;27.38;102750.56;5117143;28;20400;-64
2022/02/27 11:03:08;;;;;;;12.07;3.75;;;;;;;17.37;26.76;102738.91;5116833;28;20039;-64
2022/02/27 11:05:38;;;;;;;12.38;3.90;;;;;;;16.70;26.36;102736.38;5117264;28;20074;-64
2022/02/27 11:08:08;;;;;;;12.38;3.90;;;;;;;17.64;26.64;102722.78;5099394;28;20147;-66
2022/02/27 11:10:37;;;;;;;12.63;3.60;;;;;;;18.44;25.19;102716.53;5079495;28;20047;-66
2022/02/27 11:13:07;;;;;;;13.13;3.10;;;;;;;19.17;22.25;102724.19;5079086;28;20591;-65
2022/02/27 11:15:35;;;;;;;11.43;3.35;;;;;;;19.23;22.61;102716.44;5069484;28;20056;-64
2022/02/27 11:18:03;;;;;;;8.73;3.20;;;;;;;18.51;23.58;102722.16;5095458;28;20043;-64
2022/02/27 11:20:30;;;;;;;9.18;3.10;;;;;;;18.01;23.54;102716.41;5096931;28;20527;-66
2022/02/27 11:22:57;;;;;;;10.65;3.13;;;;;;;19.78;21.66;102715.09;5095524;28;20036;-66
2022/02/27 11:25:26;;;;;;;9.00;2.88;;;;;;;19.11;22.12;102716.75;5078948;28;20048;-65